METAR Formatted Surface Weather Observation
Issued by NWS

Home | Current Version | Previous Version | Text Only | Print | Product List | Glossary On
Versions: 1 2 3 4 5 6
000
SAUS45 KPSR 190957
MTRFHU
METAR KFHU 190956Z AUTO 00000KT 10SM SCT120 13/08 A3002 RMK AO2
TSB17E33 SLP121 T01280078 $



USA.gov is the U.S. government's official web portal to all federal, state and local government web resources and services.